Panda — H8NH — position and weather

sailwx.info

Track history (hours):
 
Tides and Currents Weather Stations Pressure Air Temp Water Temp Dewpoint Dewpoint Depression Visibility Wind Speed Wind Dir Waves Ship Positions

Panda

Last reported at 2017-Nov-24 18:30 UTC. Time now 2017-Nov-24 18:36 UTC.
Position N 37°27' E 025°53'.

Length 171 m; draft 5.5 m.

Type: Cargo ship. MMSI: 352528000.

Date/timePositionNaut miles runAvg speedWind from/ knotsBaromVisibWave heightAir tempDewpointWater temp
2017-Nov-24 18:30N 37°27' E 025°53'612.8
2017-Nov-24 18:00N 37°22' E 025°58'612.8
2017-Nov-24 17:30N 37°16' E 026°01'612.6
2017-Nov-24 17:00N 37°11' E 026°05'2812.5
2017-Nov-24 14:44N 36°46' E 026°24'312.0
2017-Nov-24 14:30N 36°44' E 026°26'612.2
2017-Nov-24 14:00N 36°40' E 026°31'612.1
2017-Nov-24 13:30N 36°35' E 026°36'612.4
2017-Nov-24 13:00N 36°30' E 026°41'612.0
2017-Nov-24 12:29N 36°25' E 026°46'611.9
2017-Nov-24 11:57N 36°20' E 026°50'512.0
2017-Nov-24 11:30N 36°17' E 026°55'611.7
2017-Nov-24 11:00N 36°12' E 027°00'612.1
2017-Nov-24 10:30N 36°08' E 027°05'612.2
2017-Nov-24 10:00N 36°03' E 027°10'611.8
2017-Nov-24 09:30N 35°59' E 027°15'611.2
2017-Nov-24 09:00N 35°55' E 027°19'511.0
2017-Nov-24 08:30N 35°50' E 027°23'611.7
2017-Nov-24 08:00N 35°45' E 027°25'612.0
2017-Nov-24 07:30N 35°39' E 027°28'612.0
2017-Nov-24 07:00N 35°33' E 027°31'812.0
2017-Nov-24 06:21N 35°26' E 027°35'411.7
2017-Nov-24 06:00N 35°22' E 027°37'611.8
2017-Nov-24 05:30N 35°17' E 027°39'611.8
2017-Nov-24 05:00N 35°12' E 027°43'  
Track history (hours):
 
Tides and Currents Weather Stations Pressure Air Temp Water Temp Dewpoint Dewpoint Depression Visibility Wind Speed Wind Dir Waves Ship Positions

Panda

Last reported at 2017-Nov-24 18:30 UTC. Time now 2017-Nov-24 18:36 UTC.
Position N 37°27' E 025°53'.

Length 171 m; draft 5.5 m.

Type: Cargo ship. MMSI: 352528000.

Date/timePositionNaut miles runAvg speedWind from/ knotsBaromVisibWave heightAir tempDewpointWater temp
2017-Nov-24 18:30N 37°27' E 025°53'612.8
2017-Nov-24 18:00N 37°22' E 025°58'612.8
2017-Nov-24 17:30N 37°16' E 026°01'612.6
2017-Nov-24 17:00N 37°11' E 026°05'2812.5
2017-Nov-24 14:44N 36°46' E 026°24'312.0
2017-Nov-24 14:30N 36°44' E 026°26'612.2
2017-Nov-24 14:00N 36°40' E 026°31'612.1
2017-Nov-24 13:30N 36°35' E 026°36'612.4
2017-Nov-24 13:00N 36°30' E 026°41'612.0
2017-Nov-24 12:29N 36°25' E 026°46'611.9
2017-Nov-24 11:57N 36°20' E 026°50'512.0
2017-Nov-24 11:30N 36°17' E 026°55'611.7
2017-Nov-24 11:00N 36°12' E 027°00'612.1
2017-Nov-24 10:30N 36°08' E 027°05'612.2
2017-Nov-24 10:00N 36°03' E 027°10'611.8
2017-Nov-24 09:30N 35°59' E 027°15'611.2
2017-Nov-24 09:00N 35°55' E 027°19'511.0
2017-Nov-24 08:30N 35°50' E 027°23'611.7
2017-Nov-24 08:00N 35°45' E 027°25'612.0
2017-Nov-24 07:30N 35°39' E 027°28'612.0
2017-Nov-24 07:00N 35°33' E 027°31'812.0
2017-Nov-24 06:21N 35°26' E 027°35'411.7
2017-Nov-24 06:00N 35°22' E 027°37'611.8
2017-Nov-24 05:30N 35°17' E 027°39'611.8
2017-Nov-24 05:00N 35°12' E 027°43'  

Dump ship's entire track history